Time;durP1;ratioP1;P1;durP2;ratioP2;P2;SDS_P1;SDS_P2;PMS_P1;PMS_P2;Temp;Humidity;BMP_temperature;BMP_pressure;BME280_temperature;BME280_humidity;BME280_pressure;Samples;Min_cycle;Max_cycle;Signal;HPM_P1;HPM_P2
2020/12/28 06:02:12;;;;;;;;;;;;;;;;;;5066117;28;20719;-64
2020/12/28 06:04:39;;;;;;;35.50;4.60;;;;;;;;;;5053425;28;20000;-63
2020/12/28 06:07:05;;;;;;;56.63;7.28;;;;;;;;;;5053255;28;20018;-64
2020/12/28 06:09:31;;;;;;;52.53;6.70;;;;;;;;;;5053605;28;20021;-65
2020/12/28 06:12:06;;;;;;;44.20;6.63;;;;;;;;;;5053521;28;20075;-65
2020/12/28 06:14:34;;;;;;;46.33;7.18;;;;;;;;;;5051303;28;20029;-64
2020/12/28 06:17:04;;;;;;;45.50;7.57;;;;;;;;;;5051226;28;20040;-66
2020/12/28 06:19:31;;;;;;;41.15;4.93;;;;;;;;;;5053341;28;20063;-65
2020/12/28 06:21:57;;;;;;;36.60;4.88;;;;;;;;;;5061938;28;20497;-66
2020/12/28 06:24:25;;;;;;;46.70;5.53;;;;;;;;;;5059903;28;20032;-65
2020/12/28 06:27:10;;;;;;;1.02;1.02;;;;;;;;;;5053435;28;20024;-66
2020/12/28 06:29:37;;;;;;;0.20;0.20;;;;;;;;;;5060548;28;20031;-65
2020/12/28 06:32:14;;;;;;;0.30;0.30;;;;;;;;;;5049127;28;20037;-66
2020/12/28 06:34:40;;;;;;;0.20;0.20;;;;;;;;;;5052787;28;20106;-64
2020/12/28 06:37:06;;;;;;;0.20;0.20;;;;;;;;;;5052693;28;20025;-66
2020/12/28 06:39:33;;;;;;;0.20;0.20;;;;;;;;;;5060823;28;20123;-67
2020/12/28 06:42:15;;;;;;;0.55;0.55;;;;;;;;;;5065742;28;20099;-67
2020/12/28 06:44:41;;;;;;;0.10;0.10;;;;;;;;;;5063053;28;20085;-67
2020/12/28 06:47:20;;;;;;;0.10;0.10;;;;;;;;;;5053672;28;20036;-69
2020/12/28 06:49:46;;;;;;;0.10;0.10;;;;;;;;;;5063364;28;20025;-64
2020/12/28 06:52:12;;;;;;;0.60;0.60;;;;;;;;;;5065782;28;20485;-70
2020/12/28 06:54:39;;;;;;;0.10;0.10;;;;;;;;;;5064333;28;20056;-76
2020/12/28 06:57:05;;;;;;;0.10;0.10;;;;;;;;;;5062505;28;20036;-75
2020/12/28 06:59:32;;;;;;;0.10;0.10;;;;;;;;;;5063374;28;20112;-67
2020/12/28 07:01:59;;;;;;;0.10;0.10;;;;;;;;;;5042710;28;20077;-71
2020/12/28 07:04:26;;;;;;;0.20;0.20;;;;;;;;;;5051378;28;20409;-75
2020/12/28 07:06:58;;;;;;;0.10;0.10;;;;;;;;;;5050254;28;20040;-73
2020/12/28 07:09:25;;;;;;;0.10;0.10;;;;;;;;;;5050507;28;20043;-71
2020/12/28 07:11:51;;;;;;;1.10;1.10;;;;;;;;;;5050372;28;20949;-70
2020/12/28 07:14:19;;;;;;;0.13;0.13;;;;;;;;;;5050658;28;20495;-72
2020/12/28 07:16:46;;;;;;;0.25;0.25;;;;;;;;;;5050117;28;20052;-73
2020/12/28 07:19:12;;;;;;;1.30;1.20;;;;;;;;;;5051473;28;20040;-71
2020/12/28 07:21:38;;;;;;;0.10;0.10;;;;;;;;;;5048063;28;20424;-68
2020/12/28 07:24:07;;;;;;;1.10;1.10;;;;;;;;;;5050435;28;20389;-72
2020/12/28 07:26:34;;;;;;;0.10;0.10;;;;;;;;;;5078939;28;20010;-70
2020/12/28 07:29:00;;;;;;;0.10;0.10;;;;;;;;;;5051687;28;20040;-71
2020/12/28 07:31:26;;;;;;;0.10;0.10;;;;;;;;;;5050471;28;20041;-70
2020/12/28 07:33:52;;;;;;;1.75;1.65;;;;;;;;;;5048787;28;20048;-71
2020/12/28 07:36:25;;;;;;;0.10;0.10;;;;;;;;;;5047834;28;20021;-71
2020/12/28 07:38:52;;;;;;;0.30;0.30;;;;;;;;;;5038471;28;20058;-67
2020/12/28 07:41:20;;;;;;;0.10;0.10;;;;;;;;;;5051085;28;20039;-70
2020/12/28 07:43:50;;;;;;;0.10;0.10;;;;;;;;;;5052545;28;20642;-71
2020/12/28 07:46:21;;;;;;;0.10;0.10;;;;;;;;;;5049992;28;20032;-63
2020/12/28 07:48:52;;;;;;;1.85;1.75;;;;;;;;;;5048322;28;20064;-65
2020/12/28 07:51:19;;;;;;;0.15;0.15;;;;;;;;;;5050192;28;20037;-65
2020/12/28 07:53:50;;;;;;;0.20;0.20;;;;;;;;;;5050559;28;20122;-68
2020/12/28 07:56:43;;;;;;;0.10;0.10;;;;;;;;;;5049475;28;20086;-68
2020/12/28 07:59:28;;;;;;;0.10;0.10;;;;;;;;;;5048825;28;20041;-63
2020/12/28 08:01:56;;;;;;;0.10;0.10;;;;;;;;;;5047139;28;20057;-66
2020/12/28 08:04:23;;;;;;;19.27;3.30;;;;;;;;;;5043987;28;20052;-68
2020/12/28 08:06:49;;;;;;;0.10;0.10;;;;;;;;;;5043004;28;20029;-66
2020/12/28 08:09:21;;;;;;;0.10;0.10;;;;;;;;;;5047355;28;20036;-66
2020/12/28 08:11:56;;;;;;;0.10;0.10;;;;;;;;;;5047555;28;20489;-64
2020/12/28 08:14:22;;;;;;;0.10;0.10;;;;;;;;;;5031993;28;20030;-65
2020/12/28 08:16:48;;;;;;;0.10;0.10;;;;;;;;;;5035018;28;20033;-65
2020/12/28 08:19:23;;;;;;;0.10;0.10;;;;;;;;;;5036995;28;20037;-64
2020/12/28 08:21:49;;;;;;;0.10;0.10;;;;;;;;;;5041212;28;20059;-67
2020/12/28 08:24:17;;;;;;;0.10;0.10;;;;;;;;;;5044580;28;20053;-66
2020/12/28 08:26:44;;;;;;;0.10;0.10;;;;;;;;;;5037023;28;20056;-65
2020/12/28 08:29:10;;;;;;;0.10;0.10;;;;;;;;;;5034854;28;20083;-64
2020/12/28 08:31:37;;;;;;;0.10;0.10;;;;;;;;;;5047083;28;20036;-65
2020/12/28 08:34:04;;;;;;;0.10;0.10;;;;;;;;;;5037589;28;20104;-63
2020/12/28 08:36:30;;;;;;;0.10;0.10;;;;;;;;;;5036686;28;20025;-61
2020/12/28 08:38:57;;;;;;;0.30;0.30;;;;;;;;;;5036041;28;20025;-66
2020/12/28 08:41:23;;;;;;;0.10;0.10;;;;;;;;;;5032513;28;20085;-66
2020/12/28 08:43:49;;;;;;;1.40;1.30;;;;;;;;;;5045483;28;20536;-67
2020/12/28 08:46:22;;;;;;;5.00;1.95;;;;;;;;;;5036260;28;20040;-66
2020/12/28 08:48:49;;;;;;;0.10;0.10;;;;;;;;;;5036033;28;20061;-67
2020/12/28 08:51:19;;;;;;;0.10;0.10;;;;;;;;;;5036018;28;20431;-67
2020/12/28 08:53:49;;;;;;;1.33;1.33;;;;;;;;;;5043952;28;20025;-67
2020/12/28 08:56:16;;;;;;;0.15;0.15;;;;;;;;;;5034885;28;20474;-66
2020/12/28 08:58:42;;;;;;;0.73;0.73;;;;;;;;;;5039955;28;20037;-66
2020/12/28 09:01:09;;;;;;;0.20;0.20;;;;;;;;;;5035778;28;20560;-65
2020/12/28 09:03:36;;;;;;;0.20;0.20;;;;;;;;;;5039099;28;20021;-66
2020/12/28 09:06:02;;;;;;;0.10;0.10;;;;;;;;;;5032129;28;20414;-62
2020/12/28 09:08:29;;;;;;;0.20;0.20;;;;;;;;;;5032767;28;20025;-68
2020/12/28 09:10:55;;;;;;;0.20;0.20;;;;;;;;;;5045662;28;20052;-66
2020/12/28 09:13:21;;;;;;;0.20;0.20;;;;;;;;;;5043877;28;20347;-63
2020/12/28 09:15:47;;;;;;;0.20;0.20;;;;;;;;;;5033295;28;20033;-63
2020/12/28 09:18:13;;;;;;;0.20;0.20;;;;;;;;;;5039726;28;20466;-64
2020/12/28 09:20:39;;;;;;;0.20;0.20;;;;;;;;;;5032105;28;20072;-67
2020/12/28 09:23:05;;;;;;;0.30;0.30;;;;;;;;;;5032267;28;20021;-64
2020/12/28 09:25:32;;;;;;;0.20;0.20;;;;;;;;;;5035142;28;20037;-67
2020/12/28 09:27:58;;;;;;;1.30;0.50;;;;;;;;;;5035983;28;20398;-68
2020/12/28 09:30:24;;;;;;;0.30;0.30;;;;;;;;;;5041612;28;20048;-68
2020/12/28 09:32:50;;;;;;;0.20;0.20;;;;;;;;;;5045165;28;20025;-67
2020/12/28 09:35:17;;;;;;;0.10;0.10;;;;;;;;;;5031190;28;20074;-66
2020/12/28 09:37:43;;;;;;;0.10;0.10;;;;;;;;;;5034880;28;20029;-67
2020/12/28 09:40:09;;;;;;;0.10;0.10;;;;;;;;;;5035169;28;20501;-67
2020/12/28 09:42:35;;;;;;;0.10;0.10;;;;;;;;;;5050962;28;20036;-65
2020/12/28 09:45:01;;;;;;;0.20;0.20;;;;;;;;;;5041710;28;20090;-68
2020/12/28 09:47:28;;;;;;;0.20;0.20;;;;;;;;;;5044421;28;20033;-66
2020/12/28 09:49:54;;;;;;;0.10;0.10;;;;;;;;;;5032901;28;20120;-66
2020/12/28 09:52:20;;;;;;;0.10;0.10;;;;;;;;;;5044677;28;20127;-65
2020/12/28 09:54:46;;;;;;;0.10;0.10;;;;;;;;;;5038902;28;20147;-69
2020/12/28 09:57:13;;;;;;;3.65;3.33;;;;;;;;;;5039003;28;20438;-67
2020/12/28 09:59:39;;;;;;;0.10;0.10;;;;;;;;;;5033105;28;20029;-67
2020/12/28 10:02:06;;;;;;;0.13;0.13;;;;;;;;;;5046125;28;20580;-65
2020/12/28 10:04:32;;;;;;;1.05;1.05;;;;;;;;;;5042151;28;20052;-62
2020/12/28 10:06:58;;;;;;;0.10;0.10;;;;;;;;;;5039985;28;20516;-67
2020/12/28 10:09:25;;;;;;;0.10;0.10;;;;;;;;;;5042984;28;20013;-64
2020/12/28 10:11:51;;;;;;;0.10;0.10;;;;;;;;;;5043677;28;20060;-61
2020/12/28 10:14:17;;;;;;;0.20;0.20;;;;;;;;;;5042934;28;20493;-60
2020/12/28 10:16:43;;;;;;;0.10;0.10;;;;;;;;;;5046186;28;20029;-61
2020/12/28 10:19:09;;;;;;;0.15;0.15;;;;;;;;;;5043893;28;20033;-65
2020/12/28 10:21:35;;;;;;;3.50;3.22;;;;;;;;;;5044892;28;20067;-63
2020/12/28 10:24:03;;;;;;;0.20;0.20;;;;;;;;;;5042125;28;20025;-68
2020/12/28 10:26:29;;;;;;;0.20;0.20;;;;;;;;;;5042999;28;20482;-63
2020/12/28 10:28:56;;;;;;;0.22;0.22;;;;;;;;;;5042622;28;20037;-68
2020/12/28 10:31:23;;;;;;;0.20;0.20;;;;;;;;;;5039104;28;20049;-67
2020/12/28 10:33:50;;;;;;;0.30;0.30;;;;;;;;;;5038454;28;20029;-64
2020/12/28 10:36:17;;;;;;;0.25;0.25;;;;;;;;;;5051867;28;20055;-64
2020/12/28 10:38:44;;;;;;;0.10;0.10;;;;;;;;;;5038903;28;20032;-68
2020/12/28 10:41:10;;;;;;;0.20;0.20;;;;;;;;;;5047463;28;20125;-63
2020/12/28 10:43:36;;;;;;;0.95;0.95;;;;;;;;;;5044035;28;20033;-72
2020/12/28 10:46:02;;;;;;;0.20;0.20;;;;;;;;;;5043953;28;20033;-72
2020/12/28 10:48:29;;;;;;;0.20;0.20;;;;;;;;;;5041821;28;20044;-73
2020/12/28 10:50:55;;;;;;;0.10;0.10;;;;;;;;;;5052777;28;20041;-69
2020/12/28 10:53:21;;;;;;;0.20;0.20;;;;;;;;;;5035252;28;20036;-65
2020/12/28 10:55:47;;;;;;;1.33;1.23;;;;;;;;;;5035433;28;20048;-63
2020/12/28 10:58:14;;;;;;;0.10;0.10;;;;;;;;;;5048605;28;20045;-65
2020/12/28 11:00:43;;;;;;;0.10;0.10;;;;;;;;;;5044434;28;20057;-64
2020/12/28 11:03:09;;;;;;;0.10;0.10;;;;;;;;;;5038650;28;20029;-63
2020/12/28 11:05:35;;;;;;;3.13;2.92;;;;;;;;;;5039918;28;20527;-61
2020/12/28 11:08:01;;;;;;;0.10;0.10;;;;;;;;;;5044399;28;20032;-74
2020/12/28 11:10:27;;;;;;;0.10;0.10;;;;;;;;;;5047840;28;20033;-72
2020/12/28 11:12:53;;;;;;;0.20;0.20;;;;;;;;;;5045706;28;20029;-72
2020/12/28 11:15:20;;;;;;;0.10;0.10;;;;;;;;;;5046404;28;20018;-74
2020/12/28 11:17:46;;;;;;;0.10;0.10;;;;;;;;;;5046851;28;20055;-69
2020/12/28 11:20:12;;;;;;;0.20;0.20;;;;;;;;;;5049921;28;20021;-70
2020/12/28 11:22:38;;;;;;;0.30;0.30;;;;;;;;;;5051503;28;20025;-70
2020/12/28 11:25:04;;;;;;;0.20;0.20;;;;;;;;;;5042908;28;20033;-67
2020/12/28 11:27:31;;;;;;;0.20;0.20;;;;;;;;;;5042795;28;20018;-70
2020/12/28 11:29:58;;;;;;;0.20;0.20;;;;;;;;;;5044348;28;20628;-69
2020/12/28 11:32:25;;;;;;;0.45;0.45;;;;;;;;;;5048370;28;20090;-69
2020/12/28 11:34:51;;;;;;;0.20;0.20;;;;;;;;;;5036603;28;20033;-68
2020/12/28 11:37:17;;;;;;;0.10;0.10;;;;;;;;;;5038532;28;20489;-70
2020/12/28 11:39:43;;;;;;;1.05;1.05;;;;;;;;;;5044946;28;20017;-69
2020/12/28 11:42:10;;;;;;;0.10;0.10;;;;;;;;;;5049584;28;20132;-69
2020/12/28 11:44:36;;;;;;;2.80;1.80;;;;;;;;;;5049119;28;20025;-67
2020/12/28 11:47:02;;;;;;;0.10;0.10;;;;;;;;;;5051981;28;20060;-69
2020/12/28 11:49:28;;;;;;;0.20;0.20;;;;;;;;;;5050402;28;20099;-69
2020/12/28 11:51:55;;;;;;;0.10;0.10;;;;;;;;;;5050934;28;20489;-68
2020/12/28 11:54:24;;;;;;;0.10;0.10;;;;;;;;;;5049199;28;20071;-70
2020/12/28 11:56:50;;;;;;;0.10;0.10;;;;;;;;;;5048026;28;20108;-69
2020/12/28 11:59:16;;;;;;;0.13;0.13;;;;;;;;;;5050408;28;20588;-72
2020/12/28 12:01:49;;;;;;;0.10;0.10;;;;;;;;;;5052715;28;20053;-71
2020/12/28 12:04:15;;;;;;;0.10;0.10;;;;;;;;;;5051413;28;20043;-70
2020/12/28 12:06:42;;;;;;;0.10;0.10;;;;;;;;;;5049220;28;20031;-68
2020/12/28 12:09:15;;;;;;;0.20;0.20;;;;;;;;;;5048664;28;20025;-68
2020/12/28 12:11:45;;;;;;;0.20;0.20;;;;;;;;;;5048864;28;20498;-68
2020/12/28 12:14:12;;;;;;;0.10;0.10;;;;;;;;;;5046929;28;20037;-67
2020/12/28 12:16:38;;;;;;;0.10;0.10;;;;;;;;;;5056553;28;20033;-67
2020/12/28 12:19:05;;;;;;;0.10;0.10;;;;;;;;;;5054187;28;20036;-67
2020/12/28 12:21:31;;;;;;;0.10;0.10;;;;;;;;;;5056097;28;20028;-67
2020/12/28 12:23:57;;;;;;;0.10;0.10;;;;;;;;;;5053052;28;20029;-68
2020/12/28 12:26:24;;;;;;;3.25;2.95;;;;;;;;;;5053001;28;20029;-72
2020/12/28 12:28:51;;;;;;;0.20;0.20;;;;;;;;;;5057307;28;20028;-73
2020/12/28 12:31:17;;;;;;;0.10;0.10;;;;;;;;;;5057130;28;20036;-72
2020/12/28 12:33:44;;;;;;;0.20;0.20;;;;;;;;;;5054826;28;20016;-65
2020/12/28 12:36:11;;;;;;;0.10;0.10;;;;;;;;;;5057321;28;20028;-68
2020/12/28 12:38:37;;;;;;;2.22;1.10;;;;;;;;;;5058640;28;20476;-70
2020/12/28 12:41:04;;;;;;;0.10;0.10;;;;;;;;;;5058744;28;20024;-68
2020/12/28 12:43:30;;;;;;;0.10;0.10;;;;;;;;;;5056024;28;20043;-69
2020/12/28 12:45:56;;;;;;;0.22;0.22;;;;;;;;;;5054291;28;20099;-70
2020/12/28 12:48:22;;;;;;;0.10;0.10;;;;;;;;;;5051384;28;20032;-70
2020/12/28 12:50:49;;;;;;;0.10;0.10;;;;;;;;;;5054128;28;20033;-66
2020/12/28 12:53:17;;;;;;;0.20;0.20;;;;;;;;;;5048259;28;20575;-68
2020/12/28 12:55:44;;;;;;;0.10;0.10;;;;;;;;;;5050993;28;20486;-67
2020/12/28 12:58:10;;;;;;;0.10;0.10;;;;;;;;;;5046551;28;20027;-67
2020/12/28 13:00:36;;;;;;;0.15;0.15;;;;;;;;;;5047417;28;20093;-67
2020/12/28 13:03:03;;;;;;;0.25;0.25;;;;;;;;;;5047156;28;20021;-67
2020/12/28 13:05:29;;;;;;;0.82;0.82;;;;;;;;;;5048264;28;20021;-69
2020/12/28 13:07:56;;;;;;;1.55;1.45;;;;;;;;;;5050070;28;20033;-67
2020/12/28 13:10:22;;;;;;;0.10;0.10;;;;;;;;;;5050559;28;20108;-65
2020/12/28 13:12:48;;;;;;;0.10;0.10;;;;;;;;;;5047780;28;20063;-66
2020/12/28 13:15:15;;;;;;;0.10;0.10;;;;;;;;;;5047713;28;20020;-67
2020/12/28 13:17:42;;;;;;;1.10;1.10;;;;;;;;;;5049867;28;20108;-64
2020/12/28 13:20:08;;;;;;;0.10;0.10;;;;;;;;;;5049741;28;20022;-67
2020/12/28 13:22:35;;;;;;;0.20;0.20;;;;;;;;;;5049262;28;20075;-65
2020/12/28 13:25:01;;;;;;;0.15;0.15;;;;;;;;;;5047994;28;20017;-66
2020/12/28 13:27:27;;;;;;;0.20;0.20;;;;;;;;;;5047865;28;20025;-66
2020/12/28 13:29:53;;;;;;;0.10;0.10;;;;;;;;;;5047148;28;20021;-66
2020/12/28 13:32:19;;;;;;;0.20;0.20;;;;;;;;;;5047599;28;20067;-63
2020/12/28 13:34:45;;;;;;;0.30;0.30;;;;;;;;;;5051296;28;20017;-65
2020/12/28 13:37:12;;;;;;;0.10;0.10;;;;;;;;;;5047358;28;20119;-65
2020/12/28 13:39:41;;;;;;;0.15;0.15;;;;;;;;;;5047293;28;20379;-65
2020/12/28 13:42:07;;;;;;;0.10;0.10;;;;;;;;;;5046241;28;20040;-66
2020/12/28 13:44:33;;;;;;;1.27;1.27;;;;;;;;;;5047781;28;20490;-65
2020/12/28 13:46:59;;;;;;;0.20;0.20;;;;;;;;;;5050074;28;20040;-63
2020/12/28 13:49:25;;;;;;;0.20;0.20;;;;;;;;;;5064116;28;20375;-62
2020/12/28 13:51:52;;;;;;;0.35;0.35;;;;;;;;;;5047244;28;20043;-64
2020/12/28 13:54:18;;;;;;;0.10;0.10;;;;;;;;;;5047724;28;20067;-64
2020/12/28 13:56:44;;;;;;;4.57;3.50;;;;;;;;;;5047656;28;20037;-65
2020/12/28 13:59:10;;;;;;;0.17;0.17;;;;;;;;;;5048544;28;20440;-64
2020/12/28 14:01:37;;;;;;;0.20;0.20;;;;;;;;;;5049952;28;20040;-64
2020/12/28 14:04:03;;;;;;;0.10;0.10;;;;;;;;;;5047602;28;20048;-64
2020/12/28 14:06:29;;;;;;;0.10;0.10;;;;;;;;;;5047219;28;20029;-64
2020/12/28 14:08:56;;;;;;;0.15;0.15;;;;;;;;;;5047314;28;20079;-61
2020/12/28 14:11:30;;;;;;;2.55;1.75;;;;;;;;;;5047712;28;20037;-66
2020/12/28 14:13:56;;;;;;;0.30;0.30;;;;;;;;;;5053906;28;20086;-66
2020/12/28 14:16:22;;;;;;;27.25;4.80;;;;;;;;;;5052589;28;20479;-64
2020/12/28 14:18:49;;;;;;;22.27;3.40;;;;;;;;;;5051318;28;20025;-63
2020/12/28 14:21:15;;;;;;;29.02;4.22;;;;;;;;;;5050827;28;20032;-63
2020/12/28 14:23:42;;;;;;;21.98;3.38;;;;;;;;;;5051330;28;20025;-64
2020/12/28 14:26:09;;;;;;;25.85;3.15;;;;;;;;;;5051067;28;20033;-64
2020/12/28 14:28:36;;;;;;;26.92;4.43;;;;;;;;;;5054689;28;20033;-64
2020/12/28 14:31:02;;;;;;;25.67;4.05;;;;;;;;;;5048351;28;20033;-63
2020/12/28 14:33:28;;;;;;;26.63;4.90;;;;;;;;;;5044640;28;20044;-65
2020/12/28 14:35:55;;;;;;;22.40;3.83;;;;;;;;;;5050622;28;20031;-63
2020/12/28 14:38:22;;;;;;;18.48;2.63;;;;;;;;;;5050894;28;20033;-65
2020/12/28 14:40:48;;;;;;;18.13;2.95;;;;;;;;;;5053828;28;20056;-62
2020/12/28 14:43:15;;;;;;;17.63;2.80;;;;;;;;;;5052455;28;20031;-63
2020/12/28 14:45:41;;;;;;;21.58;3.50;;;;;;;;;;5050837;28;20494;-63
2020/12/28 14:48:07;;;;;;;25.88;4.38;;;;;;;;;;5050596;28;20025;-64
2020/12/28 14:50:33;;;;;;;18.90;3.63;;;;;;;;;;5050360;28;20627;-66
2020/12/28 14:52:59;;;;;;;25.08;4.20;;;;;;;;;;5050464;28;20573;-65
2020/12/28 14:55:25;;;;;;;27.85;4.85;;;;;;;;;;5051921;28;20025;-64
2020/12/28 14:57:51;;;;;;;19.15;3.97;;;;;;;;;;5050423;28;20446;-65
2020/12/28 15:00:18;;;;;;;23.85;3.08;;;;;;;;;;5049995;28;20090;-65
2020/12/28 15:02:44;;;;;;;25.50;4.03;;;;;;;;;;5049709;28;20037;-65
2020/12/28 15:05:10;;;;;;;20.90;3.88;;;;;;;;;;5051630;28;20021;-64
2020/12/28 15:07:36;;;;;;;20.48;3.85;;;;;;;;;;5052909;28;20426;-64
2020/12/28 15:10:03;;;;;;;18.23;2.92;;;;;;;;;;5050482;28;20382;-65
2020/12/28 15:12:29;;;;;;;22.80;4.00;;;;;;;;;;5050264;28;20481;-65
2020/12/28 15:14:55;;;;;;;27.80;4.47;;;;;;;;;;5050296;28;20017;-64
2020/12/28 15:17:21;;;;;;;29.25;4.15;;;;;;;;;;5050418;28;20393;-67
2020/12/28 15:19:47;;;;;;;23.83;3.53;;;;;;;;;;5053645;28;20029;-66
2020/12/28 15:22:13;;;;;;;24.67;4.20;;;;;;;;;;5049950;28;20102;-66
2020/12/28 15:24:39;;;;;;;23.77;3.22;;;;;;;;;;5050019;28;20071;-66
2020/12/28 15:27:05;;;;;;;20.60;4.03;;;;;;;;;;5050051;28;20090;-65
2020/12/28 15:29:31;;;;;;;28.10;3.80;;;;;;;;;;5049708;28;20064;-65
2020/12/28 15:31:57;;;;;;;30.23;4.55;;;;;;;;;;5050874;28;20391;-65
2020/12/28 15:34:24;;;;;;;21.63;3.22;;;;;;;;;;5051510;28;20056;-66
2020/12/28 15:36:50;;;;;;;23.08;4.25;;;;;;;;;;5049987;28;20029;-64
2020/12/28 15:39:16;;;;;;;34.30;10.75;;;;;;;;;;5048763;28;20021;-64
2020/12/28 15:41:42;;;;;;;27.73;4.10;;;;;;;;;;5049594;28;20059;-66
2020/12/28 15:44:08;;;;;;;36.10;9.23;;;;;;;;;;5051513;28;20338;-67
2020/12/28 15:46:34;;;;;;;33.65;5.68;;;;;;;;;;5051431;28;20127;-66
2020/12/28 15:49:01;;;;;;;33.40;5.70;;;;;;;;;;5049470;28;20029;-71
2020/12/28 15:51:27;;;;;;;29.33;5.18;;;;;;;;;;5055074;28;20070;-68
2020/12/28 15:53:53;;;;;;;30.10;5.07;;;;;;;;;;5061623;28;20504;-67
2020/12/28 15:56:19;;;;;;;28.02;4.35;;;;;;;;;;5056804;28;20032;-68
2020/12/28 15:58:45;;;;;;;28.33;3.92;;;;;;;;;;5061476;28;20536;-69
2020/12/28 16:01:11;;;;;;;21.85;5.18;;;;;;;;;;5045937;28;20079;-67
2020/12/28 16:03:37;;;;;;;44.58;7.93;;;;;;;;;;5039811;28;20108;-66
2020/12/28 16:06:05;;;;;;;29.92;4.93;;;;;;;;;;5040137;28;20031;-66
2020/12/28 16:08:34;;;;;;;28.25;4.18;;;;;;;;;;5048101;28;20040;-67
2020/12/28 16:11:00;;;;;;;34.58;4.13;;;;;;;;;;5041416;28;20090;-65
2020/12/28 16:13:26;;;;;;;38.75;4.57;;;;;;;;;;5034791;28;20022;-66
2020/12/28 16:15:52;;;;;;;32.28;4.40;;;;;;;;;;5039290;28;20040;-67
2020/12/28 16:18:20;;;;;;;26.58;3.90;;;;;;;;;;5044470;28;20025;-67
2020/12/28 16:20:46;;;;;;;30.98;3.75;;;;;;;;;;5036739;28;20037;-66
2020/12/28 16:23:12;;;;;;;24.42;3.50;;;;;;;;;;5030999;28;20040;-68
2020/12/28 16:25:38;;;;;;;23.27;3.80;;;;;;;;;;5032747;28;20033;-65
2020/12/28 16:28:04;;;;;;;21.95;3.55;;;;;;;;;;5039950;28;20075;-65
2020/12/28 16:30:30;;;;;;;21.67;5.60;;;;;;;;;;5041656;28;20037;-65
2020/12/28 16:33:02;;;;;;;27.27;4.43;;;;;;;;;;5042617;28;20025;-65
2020/12/28 16:35:28;;;;;;;25.40;5.85;;;;;;;;;;5039324;28;20025;-62
2020/12/28 16:37:54;;;;;;;20.92;4.00;;;;;;;;;;5034117;28;20619;-65
2020/12/28 16:40:20;;;;;;;29.58;3.83;;;;;;;;;;5031208;28;20029;-67
2020/12/28 16:42:46;;;;;;;23.38;4.28;;;;;;;;;;5033758;28;20183;-66
2020/12/28 16:45:12;;;;;;;31.10;3.75;;;;;;;;;;5031803;28;20029;-66
2020/12/28 16:47:40;;;;;;;35.45;5.15;;;;;;;;;;5033177;28;20021;-65
2020/12/28 16:50:07;;;;;;;37.30;5.88;;;;;;;;;;5031045;28;20032;-66
2020/12/28 16:52:33;;;;;;;28.05;4.15;;;;;;;;;;5033479;28;20030;-67
2020/12/28 16:54:59;;;;;;;22.88;3.60;;;;;;;;;;5036756;28;20159;-67
2020/12/28 16:57:25;;;;;;;17.00;2.50;;;;;;;;;;5043544;28;20032;-68
2020/12/28 16:59:53;;;;;;;16.77;2.70;;;;;;;;;;5035185;28;20021;-73
2020/12/28 17:02:20;;;;;;;17.83;3.35;;;;;;;;;;5037460;28;20040;-69
2020/12/28 17:04:46;;;;;;;18.58;3.40;;;;;;;;;;5037432;28;20021;-69
2020/12/28 17:07:12;;;;;;;21.63;4.72;;;;;;;;;;5046433;28;20112;-68
2020/12/28 17:09:38;;;;;;;9.90;1.85;;;;;;;;;;5047893;28;20044;-67
2020/12/28 17:12:04;;;;;;;13.80;2.25;;;;;;;;;;5047737;28;20037;-71
2020/12/28 17:14:30;;;;;;;16.95;3.00;;;;;;;;;;5047104;28;20067;-73
2020/12/28 17:16:56;;;;;;;25.98;3.85;;;;;;;;;;5049914;28;20036;-73
2020/12/28 17:19:22;;;;;;;22.83;5.22;;;;;;;;;;5048385;28;20482;-68
2020/12/28 17:21:49;;;;;;;16.63;2.90;;;;;;;;;;5045832;28;20079;-71
2020/12/28 17:24:17;;;;;;;23.92;6.63;;;;;;;;;;5047574;28;20402;-70
2020/12/28 17:26:43;;;;;;;26.08;5.43;;;;;;;;;;5047629;28;20385;-73
2020/12/28 17:29:09;;;;;;;23.95;5.18;;;;;;;;;;5048519;28;22788;-67
2020/12/28 17:31:35;;;;;;;24.95;4.65;;;;;;;;;;5049804;28;20044;-71
2020/12/28 17:34:01;;;;;;;31.77;6.25;;;;;;;;;;5048300;28;20017;-71
2020/12/28 17:36:28;;;;;;;24.00;5.25;;;;;;;;;;5054640;28;20028;-74
2020/12/28 17:38:54;;;;;;;22.33;4.45;;;;;;;;;;5057728;28;20040;-69
2020/12/28 17:41:26;;;;;;;25.02;3.63;;;;;;;;;;5062226;28;20064;-72
2020/12/28 17:43:52;;;;;;;14.38;3.05;;;;;;;;;;5050315;28;20555;-70
2020/12/28 17:46:19;;;;;;;24.75;4.65;;;;;;;;;;5048384;28;20075;-70
2020/12/28 17:48:45;;;;;;;17.83;3.25;;;;;;;;;;5047502;28;20029;-72
2020/12/28 17:51:11;;;;;;;13.98;2.33;;;;;;;;;;5054305;28;20056;-72
2020/12/28 17:53:37;;;;;;;19.33;2.60;;;;;;;;;;5056528;28;20017;-72
2020/12/28 17:56:03;;;;;;;27.35;2.90;;;;;;;;;;5058834;28;20021;-72
2020/12/28 17:58:29;;;;;;;20.35;2.50;;;;;;;;;;5055956;28;20390;-73
2020/12/28 18:00:55;;;;;;;18.08;2.53;;;;;;;;;;5056124;28;20068;-73
2020/12/28 18:03:21;;;;;;;14.00;1.88;;;;;;;;;;5051699;28;20021;-66
2020/12/28 18:05:48;;;;;;;18.67;2.80;;;;;;;;;;5054309;28;20068;-68
2020/12/28 18:08:14;;;;;;;14.90;2.63;;;;;;;;;;5058171;28;20029;-69
2020/12/28 18:10:41;;;;;;;19.02;3.08;;;;;;;;;;5057100;28;20033;-67
2020/12/28 18:13:07;;;;;;;20.33;2.85;;;;;;;;;;5055575;28;20103;-69
2020/12/28 18:15:34;;;;;;;14.30;2.83;;;;;;;;;;5054896;28;20025;-67
2020/12/28 18:18:00;;;;;;;19.65;3.42;;;;;;;;;;5055893;28;20067;-69
2020/12/28 18:20:27;;;;;;;19.75;2.88;;;;;;;;;;5056980;28;20025;-68
2020/12/28 18:22:54;;;;;;;19.42;2.88;;;;;;;;;;5049997;28;20032;-70
2020/12/28 18:25:20;;;;;;;21.42;2.47;;;;;;;;;;5048177;28;20033;-68
2020/12/28 18:27:46;;;;;;;10.90;2.00;;;;;;;;;;5047594;28;20028;-65
2020/12/28 18:30:12;;;;;;;15.07;2.83;;;;;;;;;;5046966;28;20124;-67
2020/12/28 18:32:38;;;;;;;20.10;2.60;;;;;;;;;;5047276;28;20513;-67
2020/12/28 18:35:04;;;;;;;17.20;3.03;;;;;;;;;;5049088;28;20036;-67
2020/12/28 18:37:31;;;;;;;15.05;3.42;;;;;;;;;;5080896;28;20100;-67
2020/12/28 18:39:57;;;;;;;11.60;2.97;;;;;;;;;;5047044;28;20061;-67
2020/12/28 18:42:23;;;;;;;13.65;3.60;;;;;;;;;;5046875;28;20048;-68
2020/12/28 18:44:49;;;;;;;12.80;3.13;;;;;;;;;;5046888;28;20033;-67
2020/12/28 18:47:18;;;;;;;17.48;4.05;;;;;;;;;;5047621;28;20076;-67
2020/12/28 18:49:45;;;;;;;17.55;3.95;;;;;;;;;;5050247;28;20036;-64
2020/12/28 18:52:11;;;;;;;18.10;2.85;;;;;;;;;;5046911;28;20059;-67
2020/12/28 18:54:38;;;;;;;17.40;2.78;;;;;;;;;;5045949;28;20028;-67
2020/12/28 18:57:05;;;;;;;15.75;3.22;;;;;;;;;;5046416;28;20033;-66
2020/12/28 18:59:32;;;;;;;18.65;2.83;;;;;;;;;;5051622;28;20104;-65
2020/12/28 19:01:59;;;;;;;20.90;3.08;;;;;;;;;;5048032;28;20041;-64
2020/12/28 19:04:25;;;;;;;18.38;3.15;;;;;;;;;;5050384;28;20457;-66
2020/12/28 19:07:04;;;;;;;16.67;2.97;;;;;;;;;;5047953;28;20029;-66
2020/12/28 19:09:30;;;;;;;15.48;2.80;;;;;;;;;;5041112;28;20036;-66
2020/12/28 19:12:04;;;;;;;18.83;3.53;;;;;;;;;;5036115;28;20033;-67
2020/12/28 19:14:31;;;;;;;13.60;2.38;;;;;;;;;;5046479;28;20344;-66
2020/12/28 19:16:58;;;;;;;11.18;1.98;;;;;;;;;;5053017;28;20037;-66
2020/12/28 19:19:29;;;;;;;10.35;2.67;;;;;;;;;;5057541;28;20025;-68
2020/12/28 19:21:55;;;;;;;10.30;1.88;;;;;;;;;;5046441;28;20037;-66
2020/12/28 19:24:21;;;;;;;19.88;3.38;;;;;;;;;;5034204;28;20509;-67
2020/12/28 19:26:48;;;;;;;17.42;2.65;;;;;;;;;;5046161;28;20032;-66
2020/12/28 19:29:14;;;;;;;16.33;2.30;;;;;;;;;;5040052;28;20029;-67
2020/12/28 19:31:41;;;;;;;12.52;2.40;;;;;;;;;;5049185;28;20099;-65
2020/12/28 19:34:08;;;;;;;13.10;1.88;;;;;;;;;;5047653;28;20017;-65
2020/12/28 19:36:34;;;;;;;15.45;2.42;;;;;;;;;;5041731;28;20024;-64
2020/12/28 19:39:00;;;;;;;10.18;1.88;;;;;;;;;;5045187;28;20585;-65
2020/12/28 19:41:27;;;;;;;16.00;1.70;;;;;;;;;;5046523;28;20275;-66
2020/12/28 19:43:53;;;;;;;11.80;1.65;;;;;;;;;;5037668;28;20079;-66
2020/12/28 19:46:22;;;;;;;4.82;1.13;;;;;;;;;;5044995;28;20071;-65
2020/12/28 19:48:49;;;;;;;9.65;1.35;;;;;;;;;;5042718;28;20065;-65
2020/12/28 19:51:15;;;;;;;17.95;3.10;;;;;;;;;;5045160;28;20041;-64
2020/12/28 19:53:41;;;;;;;10.90;2.30;;;;;;;;;;5044288;28;20047;-65
2020/12/28 19:56:07;;;;;;;19.23;2.22;;;;;;;;;;5045898;28;20029;-65
2020/12/28 19:58:34;;;;;;;8.85;1.83;;;;;;;;;;5048621;28;20060;-66
2020/12/28 20:01:01;;;;;;;11.82;1.95;;;;;;;;;;5045499;28;20052;-63
2020/12/28 20:03:27;;;;;;;13.80;2.13;;;;;;;;;;5046184;28;20410;-65
2020/12/28 20:05:53;;;;;;;14.95;2.17;;;;;;;;;;5045114;28;20021;-66
2020/12/28 20:08:20;;;;;;;24.55;3.03;;;;;;;;;;5037789;28;20069;-65
2020/12/28 20:10:46;;;;;;;20.40;2.70;;;;;;;;;;5043610;28;20453;-66
2020/12/28 20:13:12;;;;;;;17.38;2.85;;;;;;;;;;5045086;28;20106;-66
2020/12/28 20:15:38;;;;;;;17.73;2.03;;;;;;;;;;5045929;28;20035;-65
2020/12/28 20:18:05;;;;;;;24.95;4.05;;;;;;;;;;5043960;28;20025;-66
2020/12/28 20:20:31;;;;;;;18.67;3.00;;;;;;;;;;5041477;28;20462;-66
2020/12/28 20:22:57;;;;;;;22.15;2.60;;;;;;;;;;5042041;28;20239;-67
2020/12/28 20:25:23;;;;;;;18.73;2.40;;;;;;;;;;5046842;28;20295;-68
2020/12/28 20:27:49;;;;;;;17.67;2.90;;;;;;;;;;5041599;28;20112;-67
2020/12/28 20:30:16;;;;;;;10.82;2.75;;;;;;;;;;5044015;28;20452;-66
2020/12/28 20:32:44;;;;;;;15.63;2.67;;;;;;;;;;5044604;28;20064;-67
2020/12/28 20:35:13;;;;;;;12.98;2.47;;;;;;;;;;5045603;28;20022;-68
2020/12/28 20:37:39;;;;;;;10.57;2.90;;;;;;;;;;5047400;28;20063;-67